Time;durP1;ratioP1;P1;durP2;ratioP2;P2;SDS_P1;SDS_P2;PMS_P1;PMS_P2;Temp;Humidity;BMP_temperature;BMP_pressure;BME280_temperature;BME280_humidity;BME280_pressure;Samples;Min_cycle;Max_cycle;Signal;HPM_P1;HPM_P2
2022/11/29 21:32:24;;;;;;;27.73;12.45;;;;;;;12.59;76.53;100923.53;4990882;27;1273168;-67
2022/11/29 21:34:52;;;;;;;28.90;12.10;;;;;;;12.44;77.49;100927.94;5009361;28;20462;-66
2022/11/29 21:37:25;;;;;;;26.90;12.73;;;;;;;12.27;77.52;100923.56;5010909;28;20121;-63
2022/11/29 21:39:53;;;;;;;31.67;12.13;;;;;;;12.08;78.85;100930.91;5011260;28;20054;-60
2022/11/29 21:42:21;;;;;;;22.15;11.05;;;;;;;12.00;79.31;100931.31;5011028;28;20042;-64
2022/11/29 21:44:49;;;;;;;23.73;12.15;;;;;;;11.89;79.91;100938.22;4991219;28;20053;-63
2022/11/29 21:47:17;;;;;;;22.52;12.10;;;;;;;11.86;80.05;100927.66;4991660;28;20042;-64
2022/11/29 21:49:47;;;;;;;23.65;11.75;;;;;;;11.76;80.04;100929.94;4991568;28;20125;-65
2022/11/29 21:52:15;;;;;;;23.02;12.80;;;;;;;11.78;79.91;100932.56;4990195;28;20107;-62
2022/11/29 21:54:50;;;;;;;24.60;12.73;;;;;;;11.78;79.39;100930.75;4991767;28;20046;-62
2022/11/29 21:57:18;;;;;;;22.38;12.07;;;;;;;11.76;79.25;100930.81;4991197;28;20457;-60
2022/11/29 21:59:46;;;;;;;24.92;11.63;;;;;;;11.81;79.03;100929.75;4990184;28;20051;-63
2022/11/29 22:02:14;;;;;;;22.63;12.57;;;;;;;11.73;79.23;100932.78;4990145;28;20411;-64
2022/11/29 22:04:43;;;;;;;22.88;11.55;;;;;;;11.71;79.57;100924.88;4991544;28;20051;-62
2022/11/29 22:07:13;;;;;;;20.30;11.02;;;;;;;11.66;79.54;100920.69;4990954;28;20514;-68
2022/11/29 22:09:42;;;;;;;22.55;12.45;;;;;;;11.59;79.56;100930.03;4991297;28;20046;-66
2022/11/29 22:12:10;;;;;;;24.13;12.23;;;;;;;11.49;80.33;100926.13;4991099;28;20054;-66
2022/11/29 22:14:58;;;;;;;24.15;11.88;;;;;;;11.48;79.95;100914.53;4991489;28;20046;-66
2022/11/29 22:17:26;;;;;;;22.98;11.65;;;;;;;11.52;79.80;100921.47;4990067;28;20089;-66
2022/11/29 22:19:54;;;;;;;21.35;11.10;;;;;;;11.52;79.42;100929.47;4991198;28;20050;-64
2022/11/29 22:22:24;;;;;;;22.67;11.57;;;;;;;11.39;79.67;100925.75;4990115;28;20156;-64
2022/11/29 22:24:55;;;;;;;25.07;11.97;;;;;;;11.42;79.76;100929.09;4990110;28;20065;-64
2022/11/29 22:27:23;;;;;;;20.55;11.80;;;;;;;11.50;79.17;100925.16;4991202;28;20043;-63
2022/11/29 22:29:51;;;;;;;21.92;11.77;;;;;;;11.56;79.09;100916.81;4989537;28;20050;-64
2022/11/29 22:32:19;;;;;;;21.08;11.35;;;;;;;11.58;78.49;100920.25;4990945;28;20057;-63
2022/11/29 22:34:47;;;;;;;23.17;12.18;;;;;;;11.51;78.78;100922.41;4990825;28;20043;-63
2022/11/29 22:37:16;;;;;;;21.65;11.73;;;;;;;11.30;79.38;100916.41;4990785;28;20129;-64
2022/11/29 22:39:45;;;;;;;23.08;11.93;;;;;;;11.32;79.67;100913.66;4989703;28;20056;-64
2022/11/29 22:42:13;;;;;;;24.05;12.80;;;;;;;11.33;79.31;100918.91;4985727;28;20503;-64
2022/11/29 22:44:41;;;;;;;23.33;12.35;;;;;;;11.40;79.04;100919.44;4976403;28;20043;-64
2022/11/29 22:47:09;;;;;;;21.42;11.70;;;;;;;11.42;78.95;100918.41;4977661;28;20101;-63
2022/11/29 22:49:37;;;;;;;23.70;12.40;;;;;;;11.40;78.59;100912.28;4977729;28;20101;-63
2022/11/29 22:52:06;;;;;;;23.40;12.25;;;;;;;11.42;78.65;100913.06;4977439;28;20047;-66
2022/11/29 22:54:34;;;;;;;25.00;12.27;;;;;;;11.33;78.90;100912.69;4977211;28;20061;-67
2022/11/29 22:57:03;;;;;;;22.20;12.05;;;;;;;11.44;78.38;100913.84;4977436;28;20062;-64
2022/11/29 22:59:32;;;;;;;19.83;11.77;;;;;;;11.37;78.38;100909.75;4977530;28;20046;-63
2022/11/29 23:02:00;;;;;;;23.42;12.05;;;;;;;11.40;78.15;100909.63;4977833;28;20057;-62
2022/11/29 23:04:28;;;;;;;20.40;12.35;;;;;;;11.41;78.10;100903.34;4977688;28;20055;-64
2022/11/29 23:06:56;;;;;;;21.08;11.57;;;;;;;11.38;78.30;100908.81;4977247;28;20047;-63
2022/11/29 23:09:24;;;;;;;23.17;12.00;;;;;;;11.43;78.23;100903.25;4977463;28;20101;-62
2022/11/29 23:11:55;;;;;;;22.15;12.10;;;;;;;11.39;78.23;100899.88;4977844;28;20134;-63
2022/11/29 23:14:25;;;;;;;21.08;11.43;;;;;;;11.47;77.97;100899.44;4977656;28;20451;-64
2022/11/29 23:16:53;;;;;;;23.17;11.50;;;;;;;11.58;77.75;100891.75;4990069;28;20042;-64
2022/11/29 23:19:22;;;;;;;21.75;12.07;;;;;;;11.66;76.96;100893.97;4994980;28;20069;-63
2022/11/29 23:21:50;;;;;;;19.13;11.75;;;;;;;11.60;77.03;100900.53;4996005;28;20705;-63
2022/11/29 23:24:18;;;;;;;22.52;12.13;;;;;;;11.63;76.76;100895.00;4995891;28;20053;-64
2022/11/29 23:26:47;;;;;;;20.13;11.23;;;;;;;11.62;76.69;100895.97;4995590;28;20055;-64
2022/11/29 23:29:18;;;;;;;23.48;11.85;;;;;;;11.60;76.90;100894.34;4995712;28;20118;-64
2022/11/29 23:31:48;;;;;;;21.40;11.90;;;;;;;11.62;77.02;100897.78;4995567;28;20043;-64
2022/11/29 23:34:16;;;;;;;21.38;11.50;;;;;;;11.58;77.07;100890.84;4993750;28;20062;-64
2022/11/29 23:36:44;;;;;;;19.55;11.98;;;;;;;11.51;77.27;100889.47;4995723;28;20050;-64
2022/11/29 23:39:19;;;;;;;24.67;12.85;;;;;;;11.56;77.18;100887.41;4995394;28;20058;-63
2022/11/29 23:41:47;;;;;;;19.80;11.65;;;;;;;11.54;77.01;100884.81;4996849;28;20450;-63
2022/11/29 23:44:15;;;;;;;21.17;12.32;;;;;;;11.43;77.29;100900.56;4996098;28;20125;-63
2022/11/29 23:46:43;;;;;;;21.48;12.52;;;;;;;11.46;77.18;100890.56;4995727;28;20133;-64
2022/11/29 23:49:13;;;;;;;19.73;11.35;;;;;;;11.59;76.58;100901.50;4994451;28;20050;-63
2022/11/29 23:51:41;;;;;;;21.08;11.43;;;;;;;11.44;76.91;100899.63;4979982;28;20043;-64
2022/11/29 23:54:09;;;;;;;22.45;12.77;;;;;;;11.41;77.09;100905.16;4975478;28;20407;-64
2022/11/29 23:56:37;;;;;;;18.33;11.18;;;;;;;11.43;76.96;100901.44;4975150;28;20097;-63
2022/11/29 23:59:06;;;;;;;18.92;12.35;;;;;;;11.47;76.99;100905.66;4976353;28;20066;-63
